PDA1301 LTAI-EDDS
Flight info
| Callsign | PDA1301 |
|---|---|
| Flight time | N/A |
| Altitude | 36000 |
| Route | EKNUD1F/36R EKNUD UQ26 DIGBO UL615 VADEN DCT UTEKA DCT BABIT DCT GOTAR DCT VATET DCT TITIG L173 MAH/N0382F240 L173 DODIL T127 TEKSI TEKSI5A |
| Aircraft | B738/M-SDE2E3FGHIRWXY/LB1 |
Departure
| Time | 2026-05-04 17:11 |
|---|---|
| Airport | Antalya International Airport (LTAI) |
Arrival
| Time | N/A |
|---|---|
| Airport | Stuttgart Airport (EDDS) |
| Time | Latitude | Longitude | Altitude | Speed | Heading |
|---|---|---|---|---|---|
| 2026-05-04 16:19 | 36.89823 | 30.80011 | 191 ft | 0 kts | 89° |
| 2026-05-04 16:56 | 36.89822 | 30.79962 | 202 ft | 3 kts | 89° |
| 2026-05-04 16:57 | 36.89821 | 30.79947 | 202 ft | 0 kts | 99° |
| 2026-05-04 16:57 | 36.89824 | 30.79923 | 206 ft | 3 kts | 99° |
| 2026-05-04 16:58 | 36.89826 | 30.79911 | 203 ft | 0 kts | 99° |
| 2026-05-04 17:02 | 36.89827 | 30.79905 | 191 ft | 0 kts | 99° |
| 2026-05-04 17:02 | 36.89805 | 30.79921 | 201 ft | 5 kts | 178° |
| 2026-05-04 17:03 | 36.89757 | 30.79918 | 191 ft | 9 kts | 186° |
| 2026-05-04 17:03 | 36.89681 | 30.79906 | 191 ft | 13 kts | 186° |
| 2026-05-04 17:03 | 36.89610 | 30.80093 | 193 ft | 16 kts | 96° |
| 2026-05-04 17:04 | 36.89579 | 30.80438 | 197 ft | 22 kts | 97° |
| 2026-05-04 17:04 | 36.89454 | 30.80676 | 193 ft | 20 kts | 186° |
| 2026-05-04 17:05 | 36.89131 | 30.80627 | 200 ft | 26 kts | 188° |
| 2026-05-04 17:05 | 36.88752 | 30.80578 | 201 ft | 28 kts | 186° |
| 2026-05-04 17:06 | 36.88401 | 30.80529 | 198 ft | 21 kts | 187° |
| 2026-05-04 17:06 | 36.88250 | 30.80510 | 191 ft | 16 kts | 186° |
| 2026-05-04 17:07 | 36.88136 | 30.80603 | 196 ft | 8 kts | 96° |
| 2026-05-04 17:07 | 36.88135 | 30.80604 | 196 ft | 0 kts | 96° |
| 2026-05-04 17:08 | 36.88130 | 30.80665 | 189 ft | 12 kts | 96° |
| 2026-05-04 17:08 | 36.88179 | 30.80738 | 189 ft | 0 kts | 8° |
| 2026-05-04 17:10 | 36.88222 | 30.80742 | 191 ft | 11 kts | 5° |
| 2026-05-04 17:10 | 36.90838 | 30.81156 | 669 ft | 194 kts | 4° |
| 2026-05-04 17:11 | 36.92162 | 30.81456 | 1547 ft | 186 kts | 357° |
| 2026-05-04 17:11 | 36.93343 | 30.81196 | 2864 ft | 169 kts | 342° |
| 2026-05-04 17:11 | 36.95954 | 30.80569 | 3548 ft | 217 kts | 348° |
| 2026-05-04 17:12 | 36.97522 | 30.80308 | 4006 ft | 234 kts | 350° |
| 2026-05-04 17:12 | 37.00824 | 30.79950 | 5656 ft | 242 kts | 353° |
| 2026-05-04 17:13 | 37.06002 | 30.79705 | 7887 ft | 257 kts | 357° |
| 2026-05-04 17:14 | 37.11491 | 30.79649 | 10186 ft | 269 kts | 357° |
| 2026-05-04 17:14 | 37.13412 | 30.79650 | 10553 ft | 287 kts | 358° |
| 2026-05-04 17:14 | 37.17716 | 30.79673 | 11030 ft | 327 kts | 358° |
| 2026-05-04 17:15 | 37.20013 | 30.79697 | 11729 ft | 331 kts | 358° |
| 2026-05-04 17:15 | 37.24642 | 30.79755 | 13140 ft | 339 kts | 358° |
| 2026-05-04 17:16 | 37.29430 | 30.79830 | 14340 ft | 349 kts | 358° |
| 2026-05-04 17:16 | 37.36701 | 30.79923 | 16377 ft | 353 kts | 358° |
| 2026-05-04 17:17 | 37.39178 | 30.79957 | 16783 ft | 361 kts | 359° |
| 2026-05-04 17:17 | 37.46687 | 30.80064 | 16291 ft | 355 kts | 358° |
| 2026-05-04 17:18 | 37.49145 | 30.80099 | 16037 ft | 351 kts | 359° |
| 2026-05-04 17:18 | 37.54007 | 30.80169 | 15542 ft | 348 kts | 359° |
| 2026-05-04 17:19 | 37.58836 | 30.80236 | 15064 ft | 346 kts | 359° |
| 2026-05-04 17:19 | 37.63623 | 30.80303 | 14596 ft | 346 kts | 359° |
| 2026-05-04 17:20 | 37.68450 | 30.80370 | 14105 ft | 345 kts | 359° |
| 2026-05-04 17:20 | 37.73244 | 30.80438 | 13630 ft | 343 kts | 359° |
| 2026-05-04 17:20 | 37.75610 | 30.80471 | 13348 ft | 342 kts | 359° |
| 2026-05-04 17:21 | 37.80344 | 30.80538 | 12812 ft | 339 kts | 359° |
| 2026-05-04 17:21 | 37.85053 | 30.80606 | 12288 ft | 337 kts | 359° |
| 2026-05-04 17:22 | 37.87399 | 30.80639 | 12019 ft | 336 kts | 359° |
| 2026-05-04 17:22 | 37.88946 | 30.80660 | 11852 ft | 335 kts | 359° |
| 2026-05-04 17:23 | 37.95886 | 30.80758 | 11093 ft | 330 kts | 359° |
| 2026-05-04 17:23 | 37.98177 | 30.80791 | 10836 ft | 328 kts | 359° |
| 2026-05-04 17:23 | 38.02730 | 30.80856 | 10504 ft | 323 kts | 359° |
| 2026-05-04 17:24 | 38.04992 | 30.80887 | 10706 ft | 330 kts | 359° |
| 2026-05-04 17:24 | 38.11885 | 30.80985 | 13018 ft | 336 kts | 359° |
| 2026-05-04 17:25 | 38.14231 | 30.80879 | 13697 ft | 340 kts | 353° |
| 2026-05-04 17:25 | 38.18951 | 30.80109 | 15112 ft | 341 kts | 351° |
| 2026-05-04 17:26 | 38.23665 | 30.79274 | 16532 ft | 343 kts | 352° |
| 2026-05-04 17:26 | 38.30820 | 30.78056 | 18511 ft | 348 kts | 352° |
| 2026-05-04 17:27 | 38.35638 | 30.77255 | 19677 ft | 351 kts | 353° |
| 2026-05-04 17:27 | 38.40504 | 30.76449 | 20705 ft | 357 kts | 353° |
| 2026-05-04 17:28 | 38.45468 | 30.75626 | 21726 ft | 361 kts | 354° |
| 2026-05-04 17:29 | 38.53033 | 30.74371 | 23201 ft | 369 kts | 354° |
| 2026-05-04 17:29 | 38.60706 | 30.73095 | 24409 ft | 377 kts | 354° |
| 2026-05-04 17:30 | 38.68545 | 30.71788 | 25514 ft | 384 kts | 354° |
| 2026-05-04 17:31 | 38.73886 | 30.70895 | 26202 ft | 389 kts | 354° |
| 2026-05-04 17:31 | 38.81967 | 30.69543 | 27292 ft | 393 kts | 354° |
| 2026-05-04 17:32 | 38.87283 | 30.67712 | 27868 ft | 404 kts | 340° |
| 2026-05-04 17:33 | 38.94919 | 30.62739 | 28746 ft | 413 kts | 337° |
| 2026-05-04 17:33 | 38.97477 | 30.61053 | 29053 ft | 415 kts | 338° |
| 2026-05-04 17:34 | 39.05192 | 30.55997 | 30135 ft | 414 kts | 338° |
| 2026-05-04 17:34 | 39.07750 | 30.54325 | 30469 ft | 413 kts | 338° |
| 2026-05-04 17:35 | 39.15444 | 30.49293 | 31253 ft | 415 kts | 337° |
| 2026-05-04 17:35 | 39.20598 | 30.45915 | 31818 ft | 416 kts | 336° |
| 2026-05-04 17:35 | 39.23172 | 30.44226 | 32086 ft | 416 kts | 337° |
| 2026-05-04 17:36 | 39.25733 | 30.42543 | 32400 ft | 415 kts | 336° |
| 2026-05-04 17:36 | 39.28305 | 30.40853 | 32671 ft | 415 kts | 336° |
| 2026-05-04 17:36 | 39.30883 | 30.39157 | 32868 ft | 416 kts | 336° |
| 2026-05-04 17:36 | 39.33395 | 30.37504 | 33059 ft | 418 kts | 336° |
| 2026-05-04 17:37 | 39.35956 | 30.35816 | 33283 ft | 419 kts | 336° |
| 2026-05-04 17:37 | 39.38538 | 30.34113 | 33561 ft | 418 kts | 336° |
| 2026-05-04 17:37 | 39.41082 | 30.32433 | 33795 ft | 419 kts | 336° |
| 2026-05-04 17:37 | 39.43623 | 30.30753 | 33991 ft | 420 kts | 336° |
| 2026-05-04 17:38 | 39.46225 | 30.29034 | 34221 ft | 420 kts | 336° |
| 2026-05-04 17:38 | 39.48807 | 30.27326 | 34386 ft | 422 kts | 336° |
| 2026-05-04 17:38 | 39.51445 | 30.25695 | 34533 ft | 422 kts | 339° |
| 2026-05-04 17:38 | 39.54077 | 30.24255 | 34748 ft | 421 kts | 340° |
| 2026-05-04 17:39 | 39.59487 | 30.21421 | 35052 ft | 423 kts | 340° |
| 2026-05-04 17:39 | 39.62161 | 30.20026 | 35226 ft | 424 kts | 340° |
| 2026-05-04 17:39 | 39.64838 | 30.18620 | 35432 ft | 423 kts | 340° |
| 2026-05-04 17:40 | 39.67561 | 30.17179 | 35630 ft | 423 kts | 340° |
| 2026-05-04 17:40 | 39.70289 | 30.15726 | 35797 ft | 424 kts | 340° |
| 2026-05-04 17:40 | 39.72968 | 30.14294 | 35945 ft | 425 kts | 340° |
| 2026-05-04 17:40 | 39.75696 | 30.12832 | 36054 ft | 426 kts | 339° |
| 2026-05-04 17:41 | 39.81192 | 30.09882 | 36053 ft | 427 kts | 340° |
| 2026-05-04 17:41 | 39.86626 | 30.06959 | 36060 ft | 425 kts | 340° |
| 2026-05-04 17:42 | 39.92074 | 30.04026 | 36064 ft | 423 kts | 340° |
| 2026-05-04 17:42 | 39.97478 | 30.01112 | 36068 ft | 422 kts | 340° |
| 2026-05-04 17:43 | 40.02869 | 29.98196 | 36068 ft | 422 kts | 340° |
| 2026-05-04 17:43 | 40.08295 | 29.95255 | 36074 ft | 422 kts | 340° |
| 2026-05-04 17:44 | 40.13723 | 29.92308 | 36062 ft | 424 kts | 340° |
| 2026-05-04 17:44 | 40.19169 | 29.89345 | 36066 ft | 425 kts | 340° |
| 2026-05-04 17:45 | 40.24625 | 29.86373 | 36053 ft | 426 kts | 340° |
| 2026-05-04 17:45 | 40.30061 | 29.83406 | 36060 ft | 427 kts | 340° |
| 2026-05-04 17:46 | 40.35577 | 29.80389 | 36050 ft | 427 kts | 340° |
| 2026-05-04 17:46 | 40.41017 | 29.77409 | 36047 ft | 426 kts | 340° |
| 2026-05-04 17:47 | 40.46453 | 29.74426 | 36045 ft | 425 kts | 340° |
| 2026-05-04 17:47 | 40.51886 | 29.71439 | 36037 ft | 422 kts | 340° |
| 2026-05-04 17:48 | 40.57295 | 29.68460 | 36047 ft | 420 kts | 340° |
| 2026-05-04 17:48 | 40.62685 | 29.65488 | 36034 ft | 419 kts | 340° |
| 2026-05-04 17:49 | 40.67850 | 29.61906 | 36039 ft | 424 kts | 326° |
| 2026-05-04 17:49 | 40.72465 | 29.57038 | 36031 ft | 425 kts | 325° |
| 2026-05-04 17:50 | 40.77014 | 29.52171 | 36023 ft | 424 kts | 325° |
| 2026-05-04 17:50 | 40.81627 | 29.47279 | 36054 ft | 424 kts | 325° |
| 2026-05-04 17:51 | 40.86245 | 29.42401 | 36042 ft | 426 kts | 325° |
| 2026-05-04 17:51 | 40.90882 | 29.37500 | 36050 ft | 426 kts | 325° |
| 2026-05-04 17:52 | 40.95517 | 29.32589 | 36054 ft | 427 kts | 325° |
| 2026-05-04 17:52 | 41.00156 | 29.27665 | 36054 ft | 429 kts | 325° |
| 2026-05-04 17:53 | 41.04808 | 29.22717 | 36032 ft | 429 kts | 325° |
| 2026-05-04 17:53 | 41.09467 | 29.17754 | 36038 ft | 429 kts | 325° |
| 2026-05-04 17:54 | 41.13787 | 29.12289 | 36033 ft | 437 kts | 311° |
| 2026-05-04 17:54 | 41.17191 | 29.05555 | 36035 ft | 439 kts | 307° |
| 2026-05-04 17:55 | 41.20525 | 28.98757 | 36050 ft | 439 kts | 307° |
| 2026-05-04 17:55 | 41.23890 | 28.91961 | 36048 ft | 439 kts | 307° |
| 2026-05-04 17:56 | 41.27245 | 28.85222 | 36048 ft | 440 kts | 308° |
| 2026-05-04 17:56 | 41.30628 | 28.78425 | 36050 ft | 440 kts | 307° |
| 2026-05-04 17:57 | 41.34000 | 28.71630 | 36030 ft | 439 kts | 307° |
| 2026-05-04 17:57 | 41.37359 | 28.64846 | 36043 ft | 438 kts | 307° |
| 2026-05-04 17:58 | 41.40710 | 28.58064 | 36051 ft | 438 kts | 307° |
| 2026-05-04 17:58 | 41.44051 | 28.51286 | 36050 ft | 437 kts | 307° |
| 2026-05-04 17:59 | 41.47360 | 28.44559 | 36042 ft | 437 kts | 307° |
| 2026-05-04 18:00 | 41.52346 | 28.34397 | 36054 ft | 436 kts | 307° |
| 2026-05-04 18:00 | 41.55663 | 28.27622 | 36058 ft | 436 kts | 307° |
| 2026-05-04 18:01 | 41.58974 | 28.20844 | 36043 ft | 435 kts | 307° |
| 2026-05-04 18:01 | 41.62277 | 28.14066 | 36057 ft | 435 kts | 307° |
| 2026-05-04 18:02 | 41.67208 | 28.03917 | 36057 ft | 435 kts | 306° |
| 2026-05-04 18:02 | 41.70523 | 27.97077 | 36063 ft | 436 kts | 307° |
| 2026-05-04 18:03 | 41.73817 | 27.90264 | 36061 ft | 436 kts | 306° |
| 2026-05-04 18:03 | 41.77090 | 27.83480 | 36063 ft | 436 kts | 306° |
| 2026-05-04 18:04 | 41.80378 | 27.76647 | 36062 ft | 437 kts | 306° |
| 2026-05-04 18:05 | 41.85320 | 27.66351 | 36055 ft | 437 kts | 306° |
| 2026-05-04 18:05 | 41.88609 | 27.59476 | 36058 ft | 437 kts | 306° |
| 2026-05-04 18:06 | 41.93511 | 27.49205 | 36061 ft | 437 kts | 306° |
| 2026-05-04 18:06 | 41.96788 | 27.42318 | 36048 ft | 437 kts | 306° |
| 2026-05-04 18:07 | 41.99504 | 27.36573 | 36061 ft | 438 kts | 304° |
| 2026-05-04 18:07 | 42.02543 | 27.29464 | 36065 ft | 439 kts | 302° |
| 2026-05-04 18:08 | 42.05490 | 27.22263 | 36064 ft | 439 kts | 302° |
| 2026-05-04 18:08 | 42.08450 | 27.15066 | 36061 ft | 439 kts | 302° |
| 2026-05-04 18:09 | 42.14392 | 27.00738 | 36056 ft | 439 kts | 302° |
| 2026-05-04 18:10 | 42.17371 | 26.93550 | 36054 ft | 439 kts | 302° |
| 2026-05-04 18:10 | 42.20343 | 26.86357 | 36041 ft | 438 kts | 302° |
| 2026-05-04 18:11 | 42.23308 | 26.79163 | 36049 ft | 438 kts | 302° |
| 2026-05-04 18:11 | 42.26267 | 26.71967 | 36044 ft | 438 kts | 302° |
| 2026-05-04 18:12 | 42.29202 | 26.64811 | 36027 ft | 438 kts | 301° |
| 2026-05-04 18:12 | 42.32153 | 26.57599 | 36041 ft | 438 kts | 301° |
| 2026-05-04 18:13 | 42.35093 | 26.50395 | 36052 ft | 438 kts | 301° |
| 2026-05-04 18:14 | 42.39482 | 26.39609 | 36052 ft | 438 kts | 301° |
| 2026-05-04 18:14 | 42.42414 | 26.32381 | 36052 ft | 437 kts | 300° |
| 2026-05-04 18:15 | 42.48244 | 26.17953 | 36033 ft | 435 kts | 300° |
| 2026-05-04 18:16 | 42.51143 | 26.10750 | 36029 ft | 434 kts | 300° |
| 2026-05-04 18:16 | 42.54027 | 26.03570 | 36036 ft | 433 kts | 300° |
| 2026-05-04 18:17 | 42.58318 | 25.92852 | 36051 ft | 432 kts | 300° |
| 2026-05-04 18:18 | 42.62607 | 25.82101 | 36047 ft | 431 kts | 300° |
| 2026-05-04 18:18 | 42.65457 | 25.74932 | 36054 ft | 431 kts | 300° |
| 2026-05-04 18:19 | 42.69722 | 25.64175 | 36065 ft | 431 kts | 300° |
| 2026-05-04 18:19 | 42.72557 | 25.56999 | 36058 ft | 431 kts | 300° |
| 2026-05-04 18:20 | 42.75398 | 25.49792 | 36077 ft | 431 kts | 301° |
| 2026-05-04 18:20 | 42.78211 | 25.42642 | 36062 ft | 431 kts | 300° |
| 2026-05-04 18:21 | 42.81037 | 25.35436 | 36069 ft | 431 kts | 300° |
| 2026-05-04 18:21 | 42.83860 | 25.28220 | 36077 ft | 431 kts | 300° |
| 2026-05-04 18:22 | 42.86686 | 25.20980 | 36083 ft | 432 kts | 300° |
| 2026-05-04 18:22 | 42.89503 | 25.13742 | 36088 ft | 432 kts | 301° |
| 2026-05-04 18:23 | 42.92317 | 25.06493 | 36089 ft | 432 kts | 300° |
| 2026-05-04 18:23 | 42.95126 | 24.99240 | 36077 ft | 432 kts | 299° |
| 2026-05-04 18:24 | 42.97913 | 24.92029 | 36084 ft | 432 kts | 299° |
| 2026-05-04 18:24 | 43.00711 | 24.84769 | 36096 ft | 432 kts | 299° |
| 2026-05-04 18:25 | 43.03501 | 24.77507 | 36097 ft | 432 kts | 299° |
| 2026-05-04 18:25 | 43.06297 | 24.70215 | 36103 ft | 432 kts | 299° |
| 2026-05-04 18:26 | 43.09088 | 24.62915 | 36104 ft | 433 kts | 298° |
| 2026-05-04 18:26 | 43.11879 | 24.55598 | 36109 ft | 433 kts | 298° |
| 2026-05-04 18:27 | 43.14647 | 24.48323 | 36106 ft | 434 kts | 298° |
| 2026-05-04 18:27 | 43.17435 | 24.40975 | 36106 ft | 434 kts | 298° |
| 2026-05-04 18:28 | 43.20210 | 24.33642 | 36097 ft | 434 kts | 298° |
| 2026-05-04 18:28 | 43.22987 | 24.26286 | 36098 ft | 434 kts | 298° |
| 2026-05-04 18:29 | 43.25740 | 24.18974 | 36098 ft | 434 kts | 298° |
| 2026-05-04 18:29 | 43.28508 | 24.11603 | 36103 ft | 434 kts | 298° |
| 2026-05-04 18:30 | 43.32647 | 24.00545 | 36098 ft | 434 kts | 298° |
| 2026-05-04 18:31 | 43.35397 | 23.93172 | 36093 ft | 434 kts | 298° |
| 2026-05-04 18:31 | 43.38145 | 23.85786 | 36094 ft | 433 kts | 298° |
| 2026-05-04 18:32 | 43.40885 | 23.78403 | 36076 ft | 433 kts | 297° |
| 2026-05-04 18:32 | 43.43620 | 23.71012 | 36085 ft | 433 kts | 297° |
| 2026-05-04 18:33 | 43.46352 | 23.63613 | 36087 ft | 433 kts | 297° |
| 2026-05-04 18:33 | 43.49072 | 23.56225 | 36076 ft | 433 kts | 297° |
| 2026-05-04 18:34 | 43.51778 | 23.48855 | 36068 ft | 433 kts | 297° |
| 2026-05-04 18:34 | 43.54488 | 23.41455 | 35673 ft | 429 kts | 296° |
| 2026-05-04 18:34 | 43.55817 | 23.37820 | 35845 ft | 424 kts | 296° |
| 2026-05-04 18:35 | 43.57141 | 23.34192 | 36323 ft | 422 kts | 297° |
| 2026-05-04 18:35 | 43.59816 | 23.26849 | 36158 ft | 433 kts | 297° |
| 2026-05-04 18:36 | 43.62532 | 23.19374 | 36068 ft | 436 kts | 298° |
| 2026-05-04 18:36 | 43.65226 | 23.11936 | 36070 ft | 436 kts | 298° |
| 2026-05-04 18:37 | 43.67929 | 23.04456 | 36066 ft | 435 kts | 298° |
| 2026-05-04 18:37 | 43.70630 | 22.96961 | 36064 ft | 435 kts | 298° |
| 2026-05-04 18:38 | 43.73318 | 22.89482 | 36056 ft | 434 kts | 298° |
| 2026-05-04 18:38 | 43.76000 | 22.81999 | 36065 ft | 433 kts | 298° |
| 2026-05-04 18:39 | 43.78652 | 22.74581 | 36070 ft | 432 kts | 298° |
| 2026-05-04 18:39 | 43.81326 | 22.67080 | 36065 ft | 432 kts | 298° |
| 2026-05-04 18:40 | 43.83963 | 22.59664 | 36070 ft | 432 kts | 298° |
| 2026-05-04 18:40 | 43.86614 | 22.52185 | 36070 ft | 431 kts | 298° |
| 2026-05-04 18:41 | 43.89258 | 22.44712 | 36074 ft | 431 kts | 298° |
| 2026-05-04 18:41 | 43.92168 | 22.37479 | 36065 ft | 428 kts | 310° |
| 2026-05-04 18:42 | 43.95997 | 22.31260 | 36073 ft | 427 kts | 313° |
| 2026-05-04 18:42 | 43.99913 | 22.25032 | 36071 ft | 428 kts | 313° |
| 2026-05-04 18:43 | 44.03807 | 22.18769 | 36079 ft | 428 kts | 312° |
| 2026-05-04 18:43 | 44.07684 | 22.12476 | 36084 ft | 429 kts | 312° |
| 2026-05-04 18:44 | 44.11558 | 22.06158 | 36084 ft | 429 kts | 312° |
| 2026-05-04 18:44 | 44.15427 | 21.99831 | 36090 ft | 429 kts | 312° |
| 2026-05-04 18:45 | 44.19294 | 21.93495 | 36096 ft | 429 kts | 312° |
| 2026-05-04 18:45 | 44.23155 | 21.87156 | 36104 ft | 429 kts | 312° |
| 2026-05-04 18:46 | 44.27003 | 21.80823 | 36103 ft | 428 kts | 312° |
| 2026-05-04 18:46 | 44.30826 | 21.74519 | 36090 ft | 428 kts | 312° |
| 2026-05-04 18:47 | 44.34671 | 21.68162 | 36100 ft | 428 kts | 312° |
| 2026-05-04 18:47 | 44.38503 | 21.61814 | 36110 ft | 428 kts | 312° |
| 2026-05-04 18:48 | 44.42340 | 21.55444 | 36094 ft | 428 kts | 312° |
| 2026-05-04 18:48 | 44.46163 | 21.49084 | 36077 ft | 428 kts | 312° |
| 2026-05-04 18:49 | 44.49967 | 21.42739 | 36092 ft | 428 kts | 312° |
| 2026-05-04 18:49 | 44.53819 | 21.36300 | 36101 ft | 428 kts | 312° |
| 2026-05-04 18:50 | 44.57617 | 21.29938 | 36092 ft | 428 kts | 312° |
| 2026-05-04 18:50 | 44.61439 | 21.23522 | 36091 ft | 428 kts | 312° |
| 2026-05-04 18:51 | 44.65261 | 21.17090 | 36087 ft | 428 kts | 312° |
| 2026-05-04 18:51 | 44.69070 | 21.10666 | 36089 ft | 427 kts | 312° |
| 2026-05-04 18:52 | 44.72229 | 21.05327 | 36090 ft | 427 kts | 312° |
| 2026-05-04 18:52 | 44.76030 | 20.98890 | 36088 ft | 427 kts | 312° |
| 2026-05-04 18:53 | 44.79818 | 20.92460 | 36078 ft | 426 kts | 312° |
| 2026-05-04 18:53 | 44.83596 | 20.86032 | 36089 ft | 425 kts | 312° |
| 2026-05-04 18:54 | 44.87365 | 20.79606 | 36086 ft | 425 kts | 311° |
| 2026-05-04 18:54 | 44.91131 | 20.73169 | 36090 ft | 424 kts | 311° |
| 2026-05-04 18:55 | 44.94862 | 20.66779 | 36085 ft | 424 kts | 311° |
| 2026-05-04 18:55 | 45.00481 | 20.57127 | 36083 ft | 423 kts | 311° |
| 2026-05-04 18:56 | 45.04221 | 20.50686 | 36085 ft | 423 kts | 311° |
| 2026-05-04 18:56 | 45.07928 | 20.44285 | 36082 ft | 423 kts | 311° |
| 2026-05-04 18:57 | 45.11660 | 20.37827 | 36080 ft | 424 kts | 311° |
| 2026-05-04 18:57 | 45.15390 | 20.31359 | 36078 ft | 424 kts | 311° |
| 2026-05-04 18:58 | 45.19118 | 20.24877 | 36080 ft | 424 kts | 311° |
| 2026-05-04 18:58 | 45.22846 | 20.18383 | 36081 ft | 425 kts | 311° |
| 2026-05-04 18:59 | 45.26574 | 20.11872 | 36078 ft | 425 kts | 311° |
| 2026-05-04 18:59 | 45.30304 | 20.05343 | 36070 ft | 425 kts | 310° |
| 2026-05-04 19:00 | 45.34011 | 19.98840 | 36082 ft | 425 kts | 310° |
| 2026-05-04 19:00 | 45.37735 | 19.92290 | 36080 ft | 426 kts | 310° |
| 2026-05-04 19:01 | 45.41464 | 19.85717 | 36074 ft | 426 kts | 310° |
| 2026-05-04 19:01 | 45.45190 | 19.79134 | 36072 ft | 427 kts | 310° |
| 2026-05-04 19:02 | 45.48909 | 19.72549 | 36069 ft | 427 kts | 310° |
| 2026-05-04 19:02 | 45.52630 | 19.65943 | 36075 ft | 427 kts | 310° |
| 2026-05-04 19:03 | 45.56325 | 19.59369 | 36070 ft | 427 kts | 310° |
| 2026-05-04 19:03 | 45.60045 | 19.52735 | 36070 ft | 427 kts | 310° |
| 2026-05-04 19:04 | 45.63759 | 19.46097 | 36064 ft | 427 kts | 310° |
| 2026-05-04 19:04 | 45.67470 | 19.39446 | 36061 ft | 427 kts | 309° |
| 2026-05-04 19:05 | 45.71170 | 19.32802 | 36061 ft | 427 kts | 309° |
| 2026-05-04 19:05 | 45.74856 | 19.26164 | 36059 ft | 424 kts | 309° |
| 2026-05-04 19:06 | 45.78498 | 19.19591 | 36042 ft | 417 kts | 309° |
| 2026-05-04 19:06 | 45.82084 | 19.13105 | 36051 ft | 414 kts | 309° |
| 2026-05-04 19:07 | 45.85650 | 19.06641 | 36054 ft | 412 kts | 309° |
| 2026-05-04 19:07 | 45.89201 | 19.00189 | 36054 ft | 412 kts | 309° |
| 2026-05-04 19:08 | 45.92749 | 18.93725 | 36059 ft | 412 kts | 308° |
| 2026-05-04 19:08 | 45.95860 | 18.86844 | 36063 ft | 414 kts | 301° |
| 2026-05-04 19:09 | 45.98774 | 18.79614 | 36056 ft | 416 kts | 301° |
| 2026-05-04 19:09 | 46.01665 | 18.72442 | 36055 ft | 417 kts | 301° |
| 2026-05-04 19:10 | 46.04607 | 18.65217 | 36054 ft | 419 kts | 301° |
| 2026-05-04 19:10 | 46.07568 | 18.57974 | 36042 ft | 420 kts | 301° |
| 2026-05-04 19:11 | 46.10532 | 18.50715 | 36038 ft | 421 kts | 301° |
| 2026-05-04 19:11 | 46.13496 | 18.43436 | 36050 ft | 421 kts | 301° |
| 2026-05-04 19:12 | 46.17916 | 18.32546 | 36038 ft | 420 kts | 301° |
| 2026-05-04 19:13 | 46.20862 | 18.25261 | 36037 ft | 419 kts | 301° |
| 2026-05-04 19:13 | 46.23795 | 18.17992 | 36047 ft | 419 kts | 301° |
| 2026-05-04 19:14 | 46.26719 | 18.10723 | 36035 ft | 418 kts | 301° |
| 2026-05-04 19:14 | 46.29638 | 18.03451 | 36025 ft | 417 kts | 301° |
| 2026-05-04 19:15 | 46.32549 | 17.96178 | 36027 ft | 417 kts | 301° |
| 2026-05-04 19:15 | 46.35423 | 17.88978 | 36024 ft | 416 kts | 300° |
| 2026-05-04 19:16 | 46.38320 | 17.81701 | 36023 ft | 416 kts | 300° |
| 2026-05-04 19:16 | 46.41202 | 17.74441 | 36028 ft | 415 kts | 300° |
| 2026-05-04 19:17 | 46.44081 | 17.67171 | 36017 ft | 416 kts | 300° |
| 2026-05-04 19:17 | 46.46961 | 17.59880 | 36017 ft | 416 kts | 300° |
| 2026-05-04 19:18 | 46.49830 | 17.52596 | 36011 ft | 416 kts | 300° |
| 2026-05-04 19:18 | 46.52679 | 17.45345 | 36019 ft | 416 kts | 300° |
| 2026-05-04 19:19 | 46.55550 | 17.38019 | 36022 ft | 417 kts | 300° |
| 2026-05-04 19:19 | 46.58420 | 17.30673 | 36023 ft | 417 kts | 300° |
| 2026-05-04 19:20 | 46.61274 | 17.23351 | 36020 ft | 418 kts | 300° |
| 2026-05-04 19:20 | 46.64139 | 17.15981 | 36019 ft | 418 kts | 299° |
| 2026-05-04 19:21 | 46.67006 | 17.08581 | 36021 ft | 419 kts | 299° |
| 2026-05-04 19:21 | 46.69848 | 17.01229 | 36022 ft | 419 kts | 299° |
| 2026-05-04 19:22 | 46.72709 | 16.93809 | 36016 ft | 419 kts | 299° |
| 2026-05-04 19:22 | 46.75560 | 16.86393 | 35994 ft | 419 kts | 299° |
| 2026-05-04 19:23 | 46.78410 | 16.78958 | 35990 ft | 419 kts | 298° |
| 2026-05-04 19:23 | 46.81251 | 16.71528 | 35992 ft | 419 kts | 298° |
| 2026-05-04 19:24 | 46.84073 | 16.64127 | 35974 ft | 419 kts | 298° |
| 2026-05-04 19:24 | 46.86903 | 16.56685 | 35990 ft | 418 kts | 298° |
| 2026-05-04 19:25 | 46.89726 | 16.49239 | 35979 ft | 418 kts | 298° |
| 2026-05-04 19:25 | 46.92537 | 16.41806 | 35987 ft | 418 kts | 298° |
| 2026-05-04 19:26 | 46.95350 | 16.34347 | 35988 ft | 419 kts | 298° |
| 2026-05-04 19:26 | 46.98177 | 16.26831 | 35993 ft | 427 kts | 298° |
| 2026-05-04 19:27 | 47.00910 | 16.19065 | 35976 ft | 429 kts | 293° |
| 2026-05-04 19:27 | 47.03215 | 16.11007 | 35978 ft | 430 kts | 291° |
| 2026-05-04 19:28 | 47.05460 | 16.02905 | 35975 ft | 430 kts | 292° |
| 2026-05-04 19:28 | 47.07732 | 15.94813 | 35977 ft | 429 kts | 292° |
| 2026-05-04 19:29 | 47.10020 | 15.86731 | 35973 ft | 428 kts | 292° |
| 2026-05-04 19:29 | 47.12289 | 15.78720 | 35965 ft | 427 kts | 292° |
| 2026-05-04 19:30 | 47.14556 | 15.70692 | 35974 ft | 425 kts | 292° |
| 2026-05-04 19:30 | 47.16813 | 15.62668 | 35984 ft | 425 kts | 292° |
| 2026-05-04 19:31 | 47.19065 | 15.54638 | 35983 ft | 424 kts | 291° |
| 2026-05-04 19:31 | 47.21305 | 15.46622 | 35987 ft | 423 kts | 291° |
| 2026-05-04 19:32 | 47.23521 | 15.38665 | 35973 ft | 424 kts | 291° |
| 2026-05-04 19:32 | 47.25753 | 15.30623 | 35977 ft | 425 kts | 291° |
| 2026-05-04 19:33 | 47.27983 | 15.22559 | 35990 ft | 426 kts | 291° |
| 2026-05-04 19:33 | 47.30218 | 15.14453 | 35994 ft | 427 kts | 291° |
| 2026-05-04 19:34 | 47.32454 | 15.06315 | 35993 ft | 429 kts | 291° |
| 2026-05-04 19:34 | 47.34687 | 14.98161 | 35991 ft | 430 kts | 291° |
| 2026-05-04 19:35 | 47.36541 | 14.91369 | 35991 ft | 430 kts | 290° |
| 2026-05-04 19:35 | 47.38769 | 14.83178 | 35988 ft | 430 kts | 290° |
| 2026-05-04 19:36 | 47.41353 | 14.73647 | 35989 ft | 429 kts | 290° |
| 2026-05-04 19:36 | 47.43201 | 14.66807 | 35987 ft | 428 kts | 290° |
| 2026-05-04 19:37 | 47.45401 | 14.58636 | 35997 ft | 428 kts | 290° |
| 2026-05-04 19:37 | 47.47593 | 14.50468 | 35967 ft | 427 kts | 290° |
| 2026-05-04 19:38 | 47.49774 | 14.42313 | 35966 ft | 426 kts | 290° |
| 2026-05-04 19:38 | 47.51949 | 14.34148 | 35961 ft | 426 kts | 290° |
| 2026-05-04 19:39 | 47.54103 | 14.26038 | 35962 ft | 426 kts | 290° |
| 2026-05-04 19:39 | 47.56271 | 14.17844 | 35957 ft | 427 kts | 290° |
| 2026-05-04 19:40 | 47.58434 | 14.09644 | 35951 ft | 428 kts | 290° |
| 2026-05-04 19:40 | 47.60633 | 14.01447 | 35949 ft | 429 kts | 292° |
| 2026-05-04 19:41 | 47.63138 | 13.93466 | 35940 ft | 430 kts | 294° |
| 2026-05-04 19:41 | 47.65744 | 13.85468 | 35925 ft | 431 kts | 294° |
| 2026-05-04 19:42 | 47.68325 | 13.77442 | 35930 ft | 430 kts | 293° |
| 2026-05-04 19:42 | 47.70872 | 13.69414 | 35923 ft | 430 kts | 293° |
| 2026-05-04 19:43 | 47.73406 | 13.61372 | 35924 ft | 429 kts | 293° |
| 2026-05-04 19:43 | 47.75924 | 13.53354 | 35921 ft | 429 kts | 292° |
| 2026-05-04 19:44 | 47.78443 | 13.45309 | 35901 ft | 429 kts | 292° |
| 2026-05-04 19:44 | 47.80952 | 13.37272 | 35909 ft | 428 kts | 292° |
| 2026-05-04 19:45 | 47.83450 | 13.29241 | 35894 ft | 428 kts | 292° |
| 2026-05-04 19:45 | 47.85946 | 13.21192 | 35908 ft | 427 kts | 292° |
| 2026-05-04 19:46 | 47.88434 | 13.13144 | 35903 ft | 428 kts | 292° |
| 2026-05-04 19:46 | 47.90907 | 13.05122 | 35900 ft | 428 kts | 292° |
| 2026-05-04 19:47 | 47.93385 | 12.97052 | 35899 ft | 428 kts | 292° |
| 2026-05-04 19:47 | 47.95859 | 12.88973 | 35897 ft | 428 kts | 292° |
| 2026-05-04 19:48 | 47.98323 | 12.80898 | 35923 ft | 428 kts | 291° |
| 2026-05-04 19:48 | 48.00785 | 12.72803 | 35909 ft | 428 kts | 291° |
| 2026-05-04 19:49 | 48.03244 | 12.64695 | 35903 ft | 428 kts | 291° |
| 2026-05-04 19:49 | 48.05681 | 12.56629 | 35899 ft | 428 kts | 291° |
| 2026-05-04 19:50 | 48.07744 | 12.48300 | 35913 ft | 426 kts | 285° |
| 2026-05-04 19:50 | 48.09659 | 12.39869 | 35494 ft | 430 kts | 286° |
| 2026-05-04 19:50 | 48.10627 | 12.35716 | 35110 ft | 424 kts | 286° |
| 2026-05-04 19:51 | 48.11600 | 12.31572 | 34701 ft | 420 kts | 286° |
| 2026-05-04 19:51 | 48.12564 | 12.27465 | 34299 ft | 417 kts | 286° |
| 2026-05-04 19:51 | 48.13521 | 12.23373 | 33890 ft | 414 kts | 286° |
| 2026-05-04 19:51 | 48.14464 | 12.19324 | 33441 ft | 411 kts | 286° |
| 2026-05-04 19:52 | 48.15401 | 12.15291 | 33017 ft | 407 kts | 285° |
| 2026-05-04 19:52 | 48.16136 | 12.11277 | 32598 ft | 401 kts | 277° |
| 2026-05-04 19:52 | 48.16453 | 12.07153 | 32211 ft | 395 kts | 272° |
| 2026-05-04 19:52 | 48.16687 | 12.03061 | 31822 ft | 392 kts | 272° |
| 2026-05-04 19:53 | 48.16917 | 11.99006 | 31419 ft | 389 kts | 273° |
| 2026-05-04 19:53 | 48.17158 | 11.94972 | 31037 ft | 387 kts | 274° |
| 2026-05-04 19:53 | 48.17409 | 11.90976 | 30664 ft | 384 kts | 274° |
| 2026-05-04 19:53 | 48.17662 | 11.87012 | 30291 ft | 381 kts | 274° |
| 2026-05-04 19:54 | 48.17914 | 11.83068 | 29912 ft | 379 kts | 275° |
| 2026-05-04 19:54 | 48.18325 | 11.79192 | 29477 ft | 377 kts | 281° |
| 2026-05-04 19:54 | 48.18948 | 11.75378 | 29100 ft | 374 kts | 283° |
| 2026-05-04 19:54 | 48.19600 | 11.71632 | 28696 ft | 371 kts | 283° |
| 2026-05-04 19:55 | 48.20241 | 11.67960 | 28324 ft | 367 kts | 283° |
| 2026-05-04 19:55 | 48.20875 | 11.64262 | 27925 ft | 364 kts | 282° |
| 2026-05-04 19:55 | 48.21492 | 11.60598 | 27560 ft | 361 kts | 282° |
| 2026-05-04 19:55 | 48.22096 | 11.56963 | 27179 ft | 359 kts | 281° |
| 2026-05-04 19:56 | 48.22691 | 11.53347 | 26809 ft | 356 kts | 281° |
| 2026-05-04 19:56 | 48.23281 | 11.49750 | 26455 ft | 354 kts | 281° |
| 2026-05-04 19:56 | 48.23866 | 11.46173 | 26083 ft | 351 kts | 281° |
| 2026-05-04 19:56 | 48.24444 | 11.42631 | 25721 ft | 349 kts | 281° |
| 2026-05-04 19:57 | 48.25019 | 11.39099 | 25362 ft | 347 kts | 281° |
| 2026-05-04 19:57 | 48.25592 | 11.35593 | 25005 ft | 346 kts | 282° |
| 2026-05-04 19:57 | 48.26438 | 11.32211 | 24637 ft | 348 kts | 294° |
| 2026-05-04 19:57 | 48.27701 | 11.29113 | 24290 ft | 348 kts | 304° |
| 2026-05-04 19:58 | 48.29301 | 11.26383 | 23952 ft | 349 kts | 310° |
| 2026-05-04 19:58 | 48.30997 | 11.23780 | 23591 ft | 348 kts | 311° |
| 2026-05-04 19:58 | 48.32700 | 11.21204 | 23181 ft | 347 kts | 311° |
| 2026-05-04 19:58 | 48.34400 | 11.18623 | 22789 ft | 346 kts | 311° |
| 2026-05-04 19:59 | 48.36084 | 11.16045 | 22418 ft | 344 kts | 311° |
| 2026-05-04 19:59 | 48.37730 | 11.13511 | 22060 ft | 342 kts | 310° |
| 2026-05-04 19:59 | 48.39380 | 11.10957 | 21710 ft | 340 kts | 310° |
| 2026-05-04 19:59 | 48.41021 | 11.08410 | 21357 ft | 338 kts | 310° |
| 2026-05-04 20:00 | 48.42650 | 11.05877 | 21015 ft | 336 kts | 310° |
| 2026-05-04 20:00 | 48.44267 | 11.03358 | 20673 ft | 334 kts | 310° |
| 2026-05-04 20:00 | 48.45877 | 11.00849 | 20333 ft | 332 kts | 310° |
| 2026-05-04 20:00 | 48.47473 | 10.98359 | 19997 ft | 330 kts | 310° |
| 2026-05-04 20:01 | 48.49067 | 10.95870 | 19662 ft | 329 kts | 310° |
| 2026-05-04 20:01 | 48.50639 | 10.93386 | 19355 ft | 327 kts | 309° |
| 2026-05-04 20:01 | 48.52198 | 10.90892 | 19002 ft | 326 kts | 309° |
| 2026-05-04 20:01 | 48.53749 | 10.88403 | 18669 ft | 325 kts | 309° |
| 2026-05-04 20:02 | 48.55298 | 10.85920 | 18336 ft | 324 kts | 309° |
| 2026-05-04 20:02 | 48.56842 | 10.83445 | 17965 ft | 323 kts | 309° |
| 2026-05-04 20:02 | 48.58381 | 10.80978 | 17596 ft | 322 kts | 309° |
| 2026-05-04 20:02 | 48.59922 | 10.78513 | 17251 ft | 320 kts | 309° |
| 2026-05-04 20:03 | 48.61454 | 10.76074 | 16909 ft | 319 kts | 309° |
| 2026-05-04 20:03 | 48.62965 | 10.73669 | 16580 ft | 317 kts | 309° |
| 2026-05-04 20:03 | 48.64487 | 10.71241 | 16249 ft | 315 kts | 309° |
| 2026-05-04 20:03 | 48.65976 | 10.68867 | 15927 ft | 313 kts | 310° |
| 2026-05-04 20:04 | 48.67483 | 10.66503 | 15607 ft | 312 kts | 310° |
| 2026-05-04 20:04 | 48.68991 | 10.64150 | 15302 ft | 311 kts | 310° |
| 2026-05-04 20:04 | 48.70493 | 10.61803 | 14969 ft | 310 kts | 310° |
| 2026-05-04 20:04 | 48.71969 | 10.59450 | 14648 ft | 307 kts | 305° |
| 2026-05-04 20:05 | 48.72912 | 10.56642 | 14296 ft | 296 kts | 279° |
| 2026-05-04 20:05 | 48.73041 | 10.53529 | 13680 ft | 299 kts | 261° |
| 2026-05-04 20:05 | 48.72801 | 10.50385 | 13221 ft | 301 kts | 259° |
| 2026-05-04 20:05 | 48.72525 | 10.47216 | 12731 ft | 305 kts | 259° |
| 2026-05-04 20:06 | 48.72245 | 10.44036 | 12381 ft | 303 kts | 259° |
| 2026-05-04 20:06 | 48.71972 | 10.40888 | 12101 ft | 299 kts | 259° |
| 2026-05-04 20:06 | 48.71707 | 10.37774 | 11765 ft | 298 kts | 259° |
| 2026-05-04 20:06 | 48.71444 | 10.34658 | 11414 ft | 297 kts | 259° |
| 2026-05-04 20:07 | 48.71184 | 10.31563 | 11109 ft | 295 kts | 259° |
| 2026-05-04 20:07 | 48.70927 | 10.28494 | 10808 ft | 293 kts | 260° |
| 2026-05-04 20:07 | 48.70675 | 10.25474 | 10511 ft | 291 kts | 259° |
| 2026-05-04 20:07 | 48.70426 | 10.22491 | 10391 ft | 282 kts | 259° |
| 2026-05-04 20:08 | 48.70178 | 10.19532 | 10256 ft | 275 kts | 259° |
| 2026-05-04 20:08 | 48.69940 | 10.16690 | 10037 ft | 271 kts | 259° |
| 2026-05-04 20:08 | 48.69705 | 10.13915 | 9752 ft | 270 kts | 259° |
| 2026-05-04 20:08 | 48.69464 | 10.11086 | 9429 ft | 270 kts | 259° |
| 2026-05-04 20:09 | 48.69224 | 10.08265 | 9100 ft | 270 kts | 259° |
| 2026-05-04 20:09 | 48.69170 | 10.05407 | 8755 ft | 273 kts | 275° |
| 2026-05-04 20:09 | 48.69779 | 10.02699 | 8506 ft | 277 kts | 301° |
| 2026-05-04 20:09 | 48.71161 | 10.00659 | 8259 ft | 282 kts | 327° |
| 2026-05-04 20:10 | 48.72904 | 9.99287 | 8032 ft | 283 kts | 333° |
| 2026-05-04 20:10 | 48.74684 | 9.98009 | 7659 ft | 287 kts | 333° |
| 2026-05-04 20:10 | 48.76506 | 9.96714 | 7304 ft | 288 kts | 333° |
| 2026-05-04 20:10 | 48.78299 | 9.95444 | 6998 ft | 287 kts | 334° |
| 2026-05-04 20:11 | 48.80082 | 9.94129 | 6740 ft | 284 kts | 327° |
| 2026-05-04 20:11 | 48.81476 | 9.92089 | 6456 ft | 278 kts | 299° |
| 2026-05-04 20:11 | 48.82080 | 9.89374 | 6183 ft | 271 kts | 272° |
| 2026-05-04 20:11 | 48.82029 | 9.86563 | 5934 ft | 267 kts | 264° |
| 2026-05-04 20:12 | 48.81886 | 9.83750 | 5646 ft | 265 kts | 264° |
| 2026-05-04 20:12 | 48.81734 | 9.80966 | 5370 ft | 265 kts | 264° |
| 2026-05-04 20:12 | 48.81574 | 9.78178 | 5096 ft | 264 kts | 264° |
| 2026-05-04 20:12 | 48.81174 | 9.75478 | 4803 ft | 263 kts | 247° |
| 2026-05-04 20:13 | 48.80433 | 9.72998 | 4537 ft | 261 kts | 244° |
| 2026-05-04 20:13 | 48.79635 | 9.70529 | 4259 ft | 260 kts | 244° |
| 2026-05-04 20:13 | 48.78823 | 9.68085 | 4056 ft | 259 kts | 244° |
| 2026-05-04 20:13 | 48.78030 | 9.65725 | 4003 ft | 243 kts | 244° |
| 2026-05-04 20:14 | 48.77286 | 9.63521 | 3963 ft | 227 kts | 244° |
| 2026-05-04 20:14 | 48.76596 | 9.61479 | 3968 ft | 207 kts | 245° |
| 2026-05-04 20:14 | 48.76118 | 9.59546 | 3954 ft | 190 kts | 253° |
| 2026-05-04 20:14 | 48.75727 | 9.57641 | 3968 ft | 185 kts | 255° |
| 2026-05-04 20:15 | 48.75359 | 9.55768 | 3966 ft | 188 kts | 255° |
| 2026-05-04 20:15 | 48.74991 | 9.53865 | 3974 ft | 188 kts | 255° |
| 2026-05-04 20:15 | 48.74627 | 9.51967 | 3979 ft | 188 kts | 255° |
| 2026-05-04 20:15 | 48.74265 | 9.50053 | 3977 ft | 188 kts | 255° |
| 2026-05-04 20:16 | 48.73903 | 9.48150 | 3977 ft | 188 kts | 255° |
| 2026-05-04 20:16 | 48.73544 | 9.46255 | 3995 ft | 187 kts | 255° |
| 2026-05-04 20:16 | 48.73189 | 9.44382 | 3975 ft | 187 kts | 255° |
| 2026-05-04 20:16 | 48.72839 | 9.42491 | 3984 ft | 186 kts | 256° |
| 2026-05-04 20:17 | 48.72495 | 9.40625 | 3963 ft | 183 kts | 255° |
| 2026-05-04 20:17 | 48.72136 | 9.38735 | 3765 ft | 193 kts | 256° |
| 2026-05-04 20:17 | 48.71762 | 9.36771 | 3388 ft | 192 kts | 256° |
| 2026-05-04 20:17 | 48.71389 | 9.34822 | 2851 ft | 197 kts | 256° |
| 2026-05-04 20:18 | 48.71000 | 9.32785 | 2298 ft | 201 kts | 256° |
| 2026-05-04 20:18 | 48.70627 | 9.30835 | 2055 ft | 189 kts | 256° |
| 2026-05-04 20:18 | 48.70274 | 9.28974 | 1815 ft | 178 kts | 255° |
| 2026-05-04 20:18 | 48.69941 | 9.27224 | 1588 ft | 169 kts | 255° |
| 2026-05-04 20:19 | 48.69822 | 9.26599 | 1508 ft | 167 kts | 256° |
| 2026-05-04 20:19 | 48.69812 | 9.26543 | 1504 ft | 167 kts | 256° |
| 2026-05-04 20:19 | 48.69623 | 9.25548 | 1374 ft | 166 kts | 256° |
| 2026-05-04 20:20 | 48.69572 | 9.25276 | 1338 ft | 166 kts | 256° |
| 2026-05-04 20:20 | 48.69500 | 9.24896 | 1289 ft | 167 kts | 254° |